Adamsons Peak, Australia
Current Conditions -  °F | °C
As of 3:30 AM on Saturday 20 Dec 2014 (Local Time) from YMHB Reporting Station
Broken Clouds Broken Clouds  
Wind Chill: 57°   Ceiling: 4000
Heat Index: 57°   Visibility: 6mi
Dew Point: 43°   Wind: 7mph
Humidity: 59%   Direction: 350°N
Pressure: 29.83"   Gusts: NA
Location:  43.35°S, 146.8°E
Report Text: YMHB 191630Z 35006KT 9999 BKN040 14/06 Q1010
Loading
Personal Weather Stations






























Interactive Weather Map New forecast layout! Learn more

10-Day Weather Forecast

Advertisements
Track Severe Weather on mobile